createdAt,value
2022-11-15T00:01:33.686Z,10.72
2022-11-15T00:04:19.315Z,10.78
2022-11-15T00:07:05.433Z,10.77
2022-11-15T00:09:50.754Z,10.79
2022-11-15T00:12:36.359Z,10.88
2022-11-15T00:15:21.812Z,10.86
2022-11-15T00:18:08.406Z,10.91
2022-11-15T00:20:54.153Z,10.90
2022-11-15T00:23:39.612Z,10.92
2022-11-15T00:26:25.132Z,10.69
2022-11-15T00:29:10.710Z,10.84
2022-11-15T00:31:56.177Z,10.75
2022-11-15T00:34:41.831Z,10.52
2022-11-15T00:37:27.325Z,10.32
2022-11-15T00:40:14.076Z,10.27
2022-11-15T00:43:00.181Z,10.28
2022-11-15T00:45:45.803Z,10.34
2022-11-15T00:48:31.404Z,10.27
2022-11-15T00:51:17.260Z,10.33
2022-11-15T00:54:03.121Z,10.29
2022-11-15T00:56:48.601Z,10.27
2022-11-15T00:59:34.151Z,10.22
2022-11-15T01:02:19.734Z,10.20
2022-11-15T01:05:06.230Z,10.15
2022-11-15T01:07:56.327Z,10.11
2022-11-15T01:10:42.263Z,10.14
2022-11-15T01:13:31.377Z,10.09
2022-11-15T01:16:19.755Z,10.23
2022-11-15T01:19:05.273Z,10.11
2022-11-15T01:21:51.503Z,10.08
2022-11-15T01:24:37.452Z,10.02
2022-11-15T01:27:23.198Z,9.96
2022-11-15T01:30:09.563Z,10.06
2022-11-15T01:32:55.347Z,10.08
2022-11-15T01:35:41.406Z,9.94
2022-11-15T01:38:27.016Z,9.86
2022-11-15T01:41:20.885Z,9.82
2022-11-15T01:44:42.682Z,9.96
2022-11-15T01:47:50.159Z,10.18
2022-11-15T01:50:35.687Z,10.25
2022-11-15T01:53:24.638Z,10.13
2022-11-15T01:56:17.646Z,10.20
2022-11-15T01:59:07.467Z,10.26
2022-11-15T02:01:53.402Z,10.15
2022-11-15T02:04:44.698Z,10.21
2022-11-15T02:07:32.155Z,10.25
2022-11-15T02:10:23.860Z,10.39
2022-11-15T02:13:09.706Z,10.33
2022-11-15T02:16:20.611Z,10.33
2022-11-15T02:19:15.337Z,10.52
2022-11-15T02:22:23.066Z,10.72
2022-11-15T02:25:27.172Z,10.66
2022-11-15T02:28:27.767Z,10.79
2022-11-15T02:31:29.656Z,10.75
2022-11-15T02:34:50.423Z,10.77
2022-11-15T02:38:26.812Z,10.63
2022-11-15T02:41:18.340Z,10.93
2022-11-15T02:44:21.462Z,10.85
2022-11-15T02:47:14.633Z,10.85
2022-11-15T02:50:09.344Z,11.00
2022-11-15T02:52:55.543Z,11.03
2022-11-15T02:55:51.372Z,11.04
2022-11-15T02:59:14.994Z,11.02
2022-11-15T03:02:09.961Z,11.00
2022-11-15T03:05:17.043Z,11.01
2022-11-15T03:08:18.275Z,10.93
2022-11-15T03:11:13.213Z,10.98
2022-11-15T03:14:00.241Z,10.92
2022-11-15T03:17:21.110Z,11.09
2022-11-15T03:20:09.134Z,11.04
2022-11-15T03:22:58.205Z,11.14
2022-11-15T03:25:49.779Z,11.24
2022-11-15T03:28:39.741Z,11.24
2022-11-15T03:31:50.372Z,11.26
2022-11-15T03:34:50.539Z,11.32
2022-11-15T03:37:43.575Z,11.27
2022-11-15T03:40:42.008Z,11.27
2022-11-15T03:43:33.905Z,11.28
2022-11-15T03:46:40.618Z,11.35
2022-11-15T03:49:35.192Z,11.36
2022-11-15T03:52:23.053Z,11.35
2022-11-15T03:55:11.674Z,11.40
2022-11-15T03:58:03.452Z,11.31
2022-11-15T04:00:49.278Z,11.32
2022-11-15T04:03:34.875Z,11.32
2022-11-15T04:06:20.467Z,11.33
2022-11-15T04:09:06.078Z,11.19
2022-11-15T04:11:51.768Z,11.18
2022-11-15T04:14:37.145Z,11.26
2022-11-15T04:17:22.628Z,11.23
2022-11-15T04:20:36.713Z,11.17
2022-11-15T04:23:42.984Z,11.18
2022-11-15T04:26:29.206Z,11.26
2022-11-15T04:29:33.740Z,11.14
2022-11-15T04:32:19.719Z,10.99
2022-11-15T04:35:05.887Z,11.06
2022-11-15T04:37:51.907Z,10.95
2022-11-15T04:40:38.632Z,10.90
2022-11-15T04:43:24.602Z,10.79
2022-11-15T04:46:10.331Z,10.73
2022-11-15T04:48:58.901Z,10.60
2022-11-15T04:51:45.592Z,10.72
2022-11-15T04:54:31.448Z,10.45
2022-11-15T04:57:17.677Z,10.29
2022-11-15T05:00:08.409Z,10.37
2022-11-15T05:03:12.979Z,10.28
2022-11-15T05:06:00.102Z,10.24
2022-11-15T05:08:45.781Z,10.29
2022-11-15T05:11:32.059Z,10.15
2022-11-15T05:14:17.827Z,10.07
2022-11-15T05:17:03.559Z,9.96
2022-11-15T05:19:49.398Z,10.15
2022-11-15T05:22:35.061Z,9.92
2022-11-15T05:25:21.029Z,9.88
2022-11-15T05:28:06.912Z,9.76
2022-11-15T05:30:52.930Z,9.70
2022-11-15T05:33:40.751Z,9.77
2022-11-15T05:36:46.943Z,9.60
2022-11-15T05:39:32.456Z,9.46
2022-11-15T05:42:19.094Z,9.42
2022-11-15T05:45:09.831Z,9.47
2022-11-15T05:47:58.093Z,9.35
2022-11-15T05:50:48.251Z,9.31
2022-11-15T05:53:34.633Z,9.34
2022-11-15T05:56:20.636Z,9.34
2022-11-15T05:59:08.516Z,9.37
2022-11-15T06:01:53.932Z,9.49
2022-11-15T06:04:39.452Z,9.58
2022-11-15T06:07:25.092Z,9.45
2022-11-15T06:10:10.552Z,9.62
2022-11-15T06:13:00.399Z,9.64
2022-11-15T06:15:46.164Z,9.63
2022-11-15T06:18:34.876Z,9.59
2022-11-15T06:21:20.979Z,9.61
2022-11-15T06:24:07.271Z,9.57
2022-11-15T06:26:52.885Z,9.60
2022-11-15T06:29:38.657Z,9.70
2022-11-15T06:32:24.092Z,9.81
2022-11-15T06:35:09.701Z,9.82
2022-11-15T06:37:55.096Z,9.95
2022-11-15T06:40:40.908Z,10.06
2022-11-15T06:43:26.841Z,10.09
2022-11-15T06:46:12.345Z,10.04
2022-11-15T06:48:58.594Z,10.01
2022-11-15T06:51:44.340Z,10.02
2022-11-15T06:54:29.997Z,10.18
2022-11-15T06:57:15.817Z,10.19
2022-11-15T07:00:01.292Z,10.47
2022-11-15T07:02:47.630Z,10.52
2022-11-15T07:05:34.031Z,10.42
2022-11-15T07:08:20.266Z,10.44
2022-11-15T07:11:09.321Z,10.45
2022-11-15T07:13:55.140Z,10.43
2022-11-15T07:16:40.922Z,10.42
2022-11-15T07:19:29.548Z,10.42
2022-11-15T07:22:14.967Z,10.51
2022-11-15T07:25:00.365Z,10.54
2022-11-15T07:27:56.462Z,10.62
2022-11-15T07:30:45.238Z,10.75
2022-11-15T07:33:31.169Z,10.80
2022-11-15T07:36:17.012Z,10.87
2022-11-15T07:39:02.868Z,10.86
2022-11-15T07:41:49.346Z,10.87
2022-11-15T07:44:35.220Z,11.36
2022-11-15T07:47:21.601Z,11.33
2022-11-15T07:50:07.595Z,11.18
2022-11-15T07:52:57.843Z,11.18
2022-11-15T07:55:43.519Z,11.13
2022-11-15T07:58:29.151Z,11.15
2022-11-15T08:01:14.947Z,11.14
2022-11-15T08:04:00.854Z,11.14
2022-11-15T08:06:47.221Z,11.27
2022-11-15T08:09:32.911Z,11.23
2022-11-15T08:12:18.411Z,11.19
2022-11-15T08:15:04.595Z,11.19
2022-11-15T08:17:55.461Z,11.26
2022-11-15T08:20:42.127Z,11.24
2022-11-15T08:23:28.896Z,11.30
2022-11-15T08:26:14.600Z,11.36
2022-11-15T08:29:00.070Z,11.38
2022-11-15T08:31:45.633Z,11.46
2022-11-15T08:34:30.989Z,11.50
2022-11-15T08:37:16.481Z,11.53
2022-11-15T08:40:02.400Z,11.59
2022-11-15T08:42:48.801Z,11.65
2022-11-15T08:45:36.642Z,11.60
2022-11-15T08:48:22.369Z,11.62
2022-11-15T08:51:08.196Z,11.69
2022-11-15T08:53:53.921Z,11.74
2022-11-15T08:56:39.495Z,11.80
2022-11-15T08:59:25.473Z,11.78
2022-11-15T09:02:15.207Z,11.81
2022-11-15T09:05:01.415Z,11.75
2022-11-15T09:07:46.967Z,11.73
2022-11-15T09:10:32.734Z,11.79
2022-11-15T09:13:18.473Z,11.77
2022-11-15T09:16:04.874Z,11.75
2022-11-15T09:18:50.635Z,11.73
2022-11-15T09:21:36.296Z,11.79
2022-11-15T09:24:22.247Z,11.76
2022-11-15T09:27:07.681Z,11.80
2022-11-15T09:29:53.443Z,11.79
2022-11-15T09:32:39.674Z,11.83
2022-11-15T09:35:25.693Z,11.86
2022-11-15T09:38:11.391Z,11.94
2022-11-15T09:41:23.240Z,12.09
2022-11-15T09:44:27.583Z,12.11
2022-11-15T09:47:50.865Z,12.11
2022-11-15T09:50:42.658Z,12.02
2022-11-15T09:53:15.674Z,12.12
2022-11-15T09:56:01.437Z,12.22
2022-11-15T09:58:41.060Z,12.21
2022-11-15T10:01:26.552Z,12.16
2022-11-15T10:03:59.231Z,12.31
2022-11-15T10:06:27.892Z,12.36
2022-11-15T10:09:19.995Z,12.37
2022-11-15T10:11:49.683Z,12.54
2022-11-15T10:14:23.053Z,12.58
2022-11-15T10:17:03.671Z,12.67
2022-11-15T10:20:05.613Z,12.58
2022-11-15T10:22:51.789Z,12.84
2022-11-15T10:25:22.516Z,12.90
2022-11-15T10:28:02.328Z,12.82
2022-11-15T10:30:36.016Z,12.72
2022-11-15T10:33:39.743Z,12.77
2022-11-15T10:36:10.865Z,12.72
2022-11-15T10:39:12.660Z,12.56
2022-11-15T10:41:42.067Z,12.62
2022-11-15T10:44:09.113Z,12.72
2022-11-15T10:46:47.618Z,12.84
2022-11-15T10:49:31.399Z,13.00
2022-11-15T10:52:00.565Z,12.90
2022-11-15T10:54:58.106Z,12.93
2022-11-15T10:57:28.899Z,13.18
2022-11-15T10:59:58.709Z,12.81
2022-11-15T11:02:30.766Z,13.00
2022-11-15T11:04:58.658Z,12.93
2022-11-15T11:07:36.979Z,12.97
2022-11-15T11:10:50.828Z,13.16
2022-11-15T11:13:17.024Z,12.91
2022-11-15T11:15:48.431Z,12.93
2022-11-15T11:18:40.108Z,13.14
2022-11-15T11:21:31.071Z,13.07
2022-11-15T11:24:06.564Z,13.41
2022-11-15T11:26:41.826Z,13.35
2022-11-15T11:29:26.264Z,13.12
2022-11-15T11:32:09.524Z,13.42
2022-11-15T11:35:12.953Z,13.27
2022-11-15T11:37:51.647Z,13.00
2022-11-15T11:40:36.417Z,13.14
2022-11-15T11:43:19.447Z,13.43
2022-11-15T11:46:17.127Z,13.68
2022-11-15T11:48:47.649Z,13.86
2022-11-15T11:51:54.443Z,13.60
2022-11-15T11:54:29.325Z,13.66
2022-11-15T11:56:59.542Z,13.67
2022-11-15T11:59:42.705Z,13.58
2022-11-15T12:02:16.921Z,13.72
2022-11-15T12:04:50.759Z,13.97
2022-11-15T12:07:25.659Z,14.10
2022-11-15T12:10:20.227Z,13.96
2022-11-15T12:12:53.479Z,13.81
2022-11-15T12:15:27.513Z,13.75
2022-11-15T12:17:57.321Z,13.93
2022-11-15T12:20:28.128Z,13.85
2022-11-15T12:23:15.227Z,13.57
2022-11-15T12:25:51.731Z,13.71
2022-11-15T12:28:58.646Z,13.67
2022-11-15T12:31:36.591Z,13.67
2022-11-15T12:34:31.021Z,13.61
2022-11-15T12:36:57.950Z,13.58
2022-11-15T12:40:14.122Z,13.53
2022-11-15T12:42:44.293Z,13.52
2022-11-15T12:45:29.522Z,13.47
2022-11-15T12:48:33.510Z,13.44
2022-11-15T12:51:01.330Z,13.51
2022-11-15T12:53:33.556Z,13.50
2022-11-15T12:56:19.070Z,13.52
2022-11-15T12:58:49.472Z,13.44
2022-11-15T13:01:32.141Z,13.40
2022-11-15T13:04:21.281Z,13.47
2022-11-15T13:06:57.281Z,13.38
2022-11-15T13:09:45.940Z,13.43
2022-11-15T13:12:28.331Z,13.42
2022-11-15T13:15:14.490Z,13.36
2022-11-15T13:17:56.036Z,13.30
2022-11-15T13:20:31.689Z,13.33
2022-11-15T13:23:17.680Z,13.27
2022-11-15T13:26:06.299Z,13.45
2022-11-15T13:28:54.514Z,13.54
2022-11-15T13:31:43.013Z,13.49
2022-11-15T13:34:51.476Z,13.37
2022-11-15T13:37:26.067Z,13.43
2022-11-15T13:40:02.534Z,13.47
2022-11-15T13:42:45.736Z,13.46
2022-11-15T13:45:28.816Z,13.39
2022-11-15T13:48:07.495Z,13.25
2022-11-15T13:50:41.766Z,13.12
2022-11-15T13:53:22.694Z,13.08
2022-11-15T13:56:08.016Z,13.06
2022-11-15T13:59:01.344Z,13.00
2022-11-15T14:01:36.161Z,12.91
2022-11-15T14:04:19.861Z,12.85
2022-11-15T14:06:52.799Z,12.81
2022-11-15T14:09:46.280Z,12.81
2022-11-15T14:12:40.267Z,12.77
2022-11-15T14:15:34.994Z,12.71
2022-11-15T14:18:50.859Z,12.68
2022-11-15T14:21:24.105Z,12.65
2022-11-15T14:24:17.613Z,12.69
2022-11-15T14:30:31.194Z,12.46
2022-11-15T14:33:04.692Z,12.40
2022-11-15T14:35:54.153Z,12.32
2022-11-15T14:38:29.931Z,12.32
2022-11-15T14:41:12.183Z,12.30
2022-11-15T14:43:48.661Z,12.26
2022-11-15T14:46:22.934Z,12.23
2022-11-15T14:48:52.677Z,12.22
2022-11-15T14:51:25.056Z,12.16
2022-11-15T14:53:59.834Z,12.14
2022-11-15T14:56:36.885Z,12.10
2022-11-15T14:59:13.083Z,12.06
2022-11-15T15:01:52.526Z,12.07
2022-11-15T15:04:46.850Z,12.03
2022-11-15T15:07:35.562Z,12.02
2022-11-15T15:10:41.074Z,11.97
2022-11-15T15:13:31.708Z,11.95
2022-11-15T15:16:23.864Z,11.90
2022-11-15T15:18:59.157Z,11.88
2022-11-15T15:21:56.950Z,11.88
2022-11-15T15:24:30.745Z,11.83
2022-11-15T15:27:44.232Z,11.78
2022-11-15T15:30:24.124Z,11.79
2022-11-15T15:32:53.917Z,11.75
2022-11-15T15:35:36.845Z,11.72
2022-11-15T15:38:10.141Z,11.68
2022-11-15T15:40:51.520Z,11.64
2022-11-15T15:43:25.720Z,11.58
2022-11-15T15:46:33.368Z,11.58
2022-11-15T15:49:14.318Z,11.53
2022-11-15T15:51:47.299Z,11.54
2022-11-15T15:54:16.203Z,11.48
2022-11-15T15:56:55.914Z,11.46
2022-11-15T15:59:32.565Z,11.40
2022-11-15T16:02:12.762Z,11.43
2022-11-15T16:04:45.100Z,11.37
2022-11-15T16:07:42.236Z,11.34
2022-11-15T16:10:32.109Z,11.35
2022-11-15T16:13:08.706Z,11.31
2022-11-15T16:15:41.201Z,11.29
2022-11-15T16:18:21.215Z,11.29
2022-11-15T16:21:08.500Z,11.28
2022-11-15T16:23:47.271Z,11.28
2022-11-15T16:26:30.301Z,11.23
2022-11-15T16:29:08.310Z,11.23
2022-11-15T16:31:48.625Z,11.27
2022-11-15T16:34:31.672Z,11.18
2022-11-15T16:37:31.589Z,11.19
2022-11-15T16:40:21.704Z,11.23
2022-11-15T16:42:57.566Z,11.23
2022-11-15T16:45:40.508Z,11.17
2022-11-15T16:48:43.254Z,11.18
2022-11-15T16:51:22.933Z,11.18
2022-11-15T16:54:18.079Z,11.14
2022-11-15T16:56:55.358Z,11.18
2022-11-15T16:59:33.232Z,11.12
2022-11-15T17:02:19.251Z,11.19
2022-11-15T17:04:54.813Z,11.14
2022-11-15T17:07:27.911Z,11.14
2022-11-15T17:10:07.125Z,11.14
2022-11-15T17:12:36.667Z,11.15
2022-11-15T17:15:05.387Z,11.21
2022-11-15T17:17:32.675Z,11.24
2022-11-15T17:19:59.853Z,11.20
2022-11-15T17:22:26.903Z,11.21
2022-11-15T17:24:53.801Z,11.23
2022-11-15T17:27:22.011Z,11.27
2022-11-15T17:29:49.055Z,11.20
2022-11-15T17:32:16.079Z,11.21
2022-11-15T17:34:43.098Z,11.30
2022-11-15T17:37:10.132Z,11.24
2022-11-15T17:39:37.269Z,11.25
2022-11-15T17:42:04.587Z,11.21
2022-11-15T17:44:32.729Z,11.21
2022-11-15T17:46:59.623Z,11.25
2022-11-15T17:49:26.763Z,11.19
2022-11-15T17:51:54.220Z,11.19
2022-11-15T17:54:21.752Z,11.30
2022-11-15T17:56:49.171Z,11.32
2022-11-15T17:59:21.167Z,11.23
2022-11-15T18:01:48.827Z,11.19
2022-11-15T18:04:16.189Z,11.14
2022-11-15T18:06:43.448Z,11.11
2022-11-15T18:09:10.409Z,11.11
2022-11-15T18:11:40.365Z,11.09
2022-11-15T18:14:10.917Z,11.17
2022-11-15T18:16:38.290Z,11.17
2022-11-15T18:19:14.921Z,11.23
2022-11-15T18:21:56.505Z,11.21
2022-11-15T18:24:35.166Z,11.19
2022-11-15T18:27:04.128Z,11.10
2022-11-15T18:29:32.888Z,11.13
2022-11-15T18:32:00.245Z,11.20
2022-11-15T18:34:33.869Z,11.31
2022-11-15T18:37:02.992Z,11.21
2022-11-15T18:39:30.936Z,11.32
2022-11-15T18:42:00.442Z,11.29
2022-11-15T18:44:30.416Z,11.28
2022-11-15T18:46:57.895Z,11.25
2022-11-15T18:49:25.186Z,11.19
2022-11-15T18:51:52.268Z,11.40
2022-11-15T18:54:19.352Z,11.23
2022-11-15T18:56:47.245Z,11.37
2022-11-15T18:59:15.418Z,11.35
2022-11-15T19:01:48.501Z,11.62
2022-11-15T19:04:20.080Z,11.37
2022-11-15T19:06:48.998Z,11.24
2022-11-15T19:09:18.086Z,11.32
2022-11-15T19:11:47.072Z,11.29
2022-11-15T19:14:16.587Z,11.45
2022-11-15T19:16:46.221Z,11.40
2022-11-15T19:19:18.511Z,11.52
2022-11-15T19:21:45.965Z,11.41
2022-11-15T19:24:13.089Z,11.61
2022-11-15T19:26:40.419Z,11.67
2022-11-15T19:29:10.528Z,11.69
2022-11-15T19:31:38.564Z,11.59
2022-11-15T19:34:07.073Z,11.66
2022-11-15T19:36:40.098Z,11.49
2022-11-15T19:39:10.308Z,11.52
2022-11-15T19:41:39.348Z,11.56
2022-11-15T19:44:07.141Z,11.48
2022-11-15T19:46:35.064Z,11.42
2022-11-15T19:49:02.334Z,11.32
2022-11-15T19:51:31.187Z,11.27
2022-11-15T19:54:03.780Z,11.20
2022-11-15T19:56:30.920Z,11.19
2022-11-15T19:58:58.080Z,11.26
2022-11-15T20:01:27.905Z,11.25
2022-11-15T20:03:58.008Z,11.18
2022-11-15T20:06:37.107Z,11.13
2022-11-15T20:09:04.646Z,11.04
2022-11-15T20:11:31.955Z,11.12
2022-11-15T20:14:00.570Z,11.09
2022-11-15T20:16:28.216Z,11.05
2022-11-15T20:18:55.340Z,11.05
2022-11-15T20:21:22.479Z,11.04
2022-11-15T20:23:51.186Z,10.99
2022-11-15T20:26:19.527Z,10.99
2022-11-15T20:28:48.321Z,10.93
2022-11-15T20:31:16.233Z,10.92
2022-11-15T20:33:43.181Z,10.88
2022-11-15T20:36:16.126Z,10.83
2022-11-15T20:38:44.773Z,10.90
2022-11-15T20:41:12.907Z,10.88
2022-11-15T20:43:43.742Z,10.94
2022-11-15T20:46:12.605Z,10.91
2022-11-15T20:48:40.452Z,10.91
2022-11-15T20:51:19.707Z,10.90
2022-11-15T20:53:47.402Z,10.88
2022-11-15T20:56:18.023Z,10.93
2022-11-15T20:58:46.022Z,10.95
2022-11-15T21:01:15.382Z,10.91
2022-11-15T21:03:43.003Z,10.92
2022-11-15T21:06:10.813Z,10.90
2022-11-15T21:08:56.407Z,10.96
2022-11-15T21:11:43.500Z,10.95
2022-11-15T21:14:10.842Z,10.93
2022-11-15T21:16:39.054Z,10.91
2022-11-15T21:19:06.755Z,10.93
2022-11-15T21:21:35.426Z,10.94
2022-11-15T21:24:08.296Z,10.91
2022-11-15T21:26:36.085Z,10.87
2022-11-15T21:29:03.675Z,10.95
2022-11-15T21:31:32.158Z,10.95
2022-11-15T21:34:02.688Z,10.89
2022-11-15T21:36:30.458Z,10.89
2022-11-15T21:38:57.355Z,10.84
2022-11-15T21:41:24.563Z,10.80
2022-11-15T21:43:51.545Z,10.77
2022-11-15T21:46:18.628Z,10.77
2022-11-15T21:48:45.995Z,10.74
2022-11-15T21:51:13.139Z,10.73
2022-11-15T21:53:40.353Z,10.80
2022-11-15T21:56:08.097Z,10.80
2022-11-15T21:58:35.877Z,10.77
2022-11-15T22:01:21.560Z,10.77
2022-11-15T22:03:48.742Z,10.75
2022-11-15T22:06:18.667Z,10.76
2022-11-15T22:08:46.753Z,10.73
2022-11-15T22:11:14.631Z,10.72
2022-11-15T22:13:42.056Z,10.71
2022-11-15T22:16:09.612Z,10.71
2022-11-15T22:18:37.504Z,10.75
2022-11-15T22:21:12.136Z,10.71
2022-11-15T22:23:39.627Z,10.68
2022-11-15T22:26:07.802Z,10.66
2022-11-15T22:28:35.462Z,10.62
2022-11-15T22:31:03.193Z,10.61
2022-11-15T22:33:32.142Z,10.60
2022-11-15T22:35:59.967Z,10.58
2022-11-15T22:38:28.268Z,10.58
2022-11-15T22:40:55.699Z,10.58
2022-11-15T22:43:24.508Z,10.57
2022-11-15T22:45:51.498Z,10.55
2022-11-15T22:48:23.866Z,10.52
2022-11-15T22:50:51.126Z,10.52
2022-11-15T22:53:19.086Z,10.53
2022-11-15T22:56:03.633Z,10.55
2022-11-15T22:58:32.536Z,10.54
2022-11-15T23:01:02.666Z,10.52
2022-11-15T23:03:31.155Z,10.53
2022-11-15T23:06:05.938Z,10.53
2022-11-15T23:08:33.351Z,10.54
2022-11-15T23:11:20.781Z,10.54
2022-11-15T23:13:53.107Z,10.52
2022-11-15T23:16:23.992Z,10.53
2022-11-15T23:18:58.182Z,10.51
2022-11-15T23:21:46.188Z,10.60
2022-11-15T23:24:14.557Z,10.60
2022-11-15T23:26:42.351Z,10.62
2022-11-15T23:29:11.438Z,10.61
2022-11-15T23:32:01.978Z,10.59
2022-11-15T23:34:31.059Z,10.66
2022-11-15T23:36:59.084Z,10.55
2022-11-15T23:39:26.633Z,10.53
2022-11-15T23:41:53.699Z,10.52
2022-11-15T23:44:20.709Z,10.55
2022-11-15T23:46:47.773Z,10.52
2022-11-15T23:49:14.731Z,10.46
2022-11-15T23:51:41.832Z,10.49
2022-11-15T23:54:08.937Z,10.49
2022-11-15T23:56:36.082Z,10.48
2022-11-15T23:59:03.571Z,10.47
